createdAt,value
2018-09-19T00:01:26.853Z,97070.66
2018-09-19T00:03:55.195Z,97060.87
2018-09-19T00:06:23.539Z,97060.65
2018-09-19T00:08:51.877Z,97062.97
2018-09-19T00:11:20.232Z,97059.99
2018-09-19T00:13:48.744Z,97070.50
2018-09-19T00:16:17.062Z,97068.77
2018-09-19T00:18:45.413Z,97079.88
2018-09-19T00:21:13.815Z,97088.90
2018-09-19T00:23:42.167Z,97082.23
2018-09-19T00:26:10.548Z,97071.67
2018-09-19T00:28:38.882Z,97074.80
2018-09-19T00:31:07.212Z,97079.97
2018-09-19T00:33:36.819Z,97084.36
2018-09-19T00:36:05.409Z,97082.14
2018-09-19T00:38:33.727Z,97071.95
2018-09-19T00:41:02.072Z,97085.70
2018-09-19T00:43:30.374Z,97076.81
2018-09-19T00:45:58.703Z,97075.61
2018-09-19T00:48:27.015Z,97077.61
2018-09-19T00:50:55.357Z,97074.48
2018-09-19T00:53:23.666Z,97078.27
2018-09-19T00:55:52.011Z,97079.84
2018-09-19T00:58:20.324Z,97082.63
2018-09-19T01:00:48.659Z,97087.52
2018-09-19T01:03:17.207Z,97079.02
2018-09-19T01:05:45.582Z,97086.74
2018-09-19T01:08:13.908Z,97090.30
2018-09-19T01:10:42.691Z,97098.30
2018-09-19T01:13:10.990Z,97103.64
2018-09-19T01:15:39.324Z,97096.78
2018-09-19T01:18:07.642Z,97100.11
2018-09-19T01:20:36.503Z,97103.41
2018-09-19T01:23:04.815Z,97107.16
2018-09-19T01:25:33.156Z,97102.93
2018-09-19T01:28:01.467Z,97101.77
2018-09-19T01:30:29.794Z,97104.03
2018-09-19T01:32:58.111Z,97100.95
2018-09-19T01:35:26.486Z,97102.64
2018-09-19T01:37:55.248Z,97101.52
2018-09-19T01:40:23.570Z,97106.27
2018-09-19T01:42:51.867Z,97104.59
2018-09-19T01:45:20.210Z,97108.78
2018-09-19T01:47:48.523Z,97113.99
2018-09-19T01:50:16.885Z,97115.58
2018-09-19T01:52:45.322Z,97121.53
2018-09-19T01:55:13.620Z,97116.61
2018-09-19T01:57:42.021Z,97120.48
2018-09-19T02:00:10.383Z,97120.48
2018-09-19T02:02:38.697Z,97115.61
2018-09-19T02:05:07.461Z,97116.95
2018-09-19T02:07:35.880Z,97115.56
2018-09-19T02:10:04.233Z,97112.98
2018-09-19T02:12:32.539Z,97112.98
2018-09-19T02:15:00.886Z,97113.08
2018-09-19T02:17:29.221Z,97110.20
2018-09-19T02:19:57.535Z,97118.45
2018-09-19T02:22:25.920Z,97116.80
2018-09-19T02:24:54.242Z,97118.55
2018-09-19T02:27:22.575Z,97119.20
2018-09-19T02:29:51.207Z,97119.84
2018-09-19T02:32:19.548Z,97117.70
2018-09-19T02:34:47.887Z,97128.71
2018-09-19T02:37:16.236Z,97127.19
2018-09-19T02:39:44.547Z,97134.31
2018-09-19T02:42:12.894Z,97129.11
2018-09-19T02:44:41.210Z,97129.95
2018-09-19T02:47:09.539Z,97134.02
2018-09-19T02:49:37.853Z,97130.64
2018-09-19T02:52:06.203Z,97130.95
2018-09-19T02:54:34.514Z,97135.80
2018-09-19T02:57:02.847Z,97131.97
2018-09-19T02:59:31.182Z,97131.73
2018-09-19T03:01:59.519Z,97132.96
2018-09-19T03:04:27.838Z,97139.05
2018-09-19T03:06:56.195Z,97140.86
2018-09-19T03:09:24.504Z,97148.38
2018-09-19T03:11:52.839Z,97152.06
2018-09-19T03:14:21.303Z,97153.73
2018-09-19T03:19:17.968Z,97150.20
2018-09-19T03:21:46.299Z,97145.04
2018-09-19T03:24:14.620Z,97152.95
2018-09-19T03:26:42.942Z,97150.73
2018-09-19T03:29:11.297Z,97145.04
2018-09-19T03:31:39.623Z,97143.14
2018-09-19T03:34:07.950Z,97147.81
2018-09-19T03:36:36.264Z,97150.52
2018-09-19T03:39:06.418Z,97147.25
2018-09-19T03:41:34.743Z,97148.05
2018-09-19T03:44:03.074Z,97150.28
2018-09-19T03:46:31.390Z,97147.92
2018-09-19T03:48:59.714Z,97145.63
2018-09-19T03:51:28.042Z,97143.69
2018-09-19T03:53:56.391Z,97145.92
2018-09-19T03:56:24.691Z,97151.70
2018-09-19T03:58:53.036Z,97145.79
2018-09-19T04:01:21.582Z,97150.13
2018-09-19T04:03:49.919Z,97141.52
2018-09-19T04:06:18.245Z,97150.34
2018-09-19T04:08:46.592Z,97150.81
2018-09-19T04:11:14.948Z,97146.43
2018-09-19T04:13:43.400Z,97142.87
2018-09-19T04:16:11.723Z,97148.34
2018-09-19T04:18:40.079Z,97147.02
2018-09-19T04:21:08.423Z,97151.31
2018-09-19T04:23:36.755Z,97153.30
2018-09-19T04:26:05.218Z,97148.61
2018-09-19T04:28:33.579Z,97148.33
2018-09-19T04:31:01.916Z,97165.61
2018-09-19T04:33:30.230Z,97157.80
2018-09-19T04:35:58.577Z,97155.95
2018-09-19T04:38:26.952Z,97149.47
2018-09-19T04:40:55.280Z,97150.01
2018-09-19T04:43:23.699Z,97149.09
2018-09-19T04:45:52.033Z,97155.09
2018-09-19T04:48:20.398Z,97145.86
2018-09-19T04:50:48.968Z,97154.70
2018-09-19T04:53:17.556Z,97159.88
2018-09-19T04:55:46.144Z,97167.70
2018-09-19T04:58:14.509Z,97160.11
2018-09-19T05:00:42.911Z,97170.14
2018-09-19T05:03:11.487Z,97171.84
2018-09-19T05:05:40.525Z,97165.80
2018-09-19T05:08:08.872Z,97165.30
2018-09-19T05:10:37.412Z,97163.39
2018-09-19T05:13:05.763Z,97165.20
2018-09-19T05:15:34.089Z,97167.39
2018-09-19T05:18:02.431Z,97164.37
2018-09-19T05:20:30.752Z,97170.05
2018-09-19T05:22:59.091Z,97173.97
2018-09-19T05:25:27.485Z,97173.20
2018-09-19T05:27:55.839Z,97177.32
2018-09-19T05:30:24.156Z,97177.96
2018-09-19T05:32:52.647Z,97177.58
2018-09-19T05:35:20.962Z,97176.70
2018-09-19T05:37:49.795Z,97176.14
2018-09-19T05:40:18.104Z,97174.13
2018-09-19T05:42:46.426Z,97170.47
2018-09-19T05:45:14.770Z,97169.44
2018-09-19T05:47:43.092Z,97176.39
2018-09-19T05:50:11.435Z,97180.05
2018-09-19T05:52:39.754Z,97177.07
2018-09-19T05:55:08.092Z,97183.57
2018-09-19T05:57:36.424Z,97180.87
2018-09-19T06:00:05.183Z,97181.36
2018-09-19T06:02:33.547Z,97190.63
2018-09-19T06:05:01.926Z,97187.92
2018-09-19T06:07:30.666Z,97182.75
2018-09-19T06:09:59.010Z,97192.37
2018-09-19T06:12:27.315Z,97196.58
2018-09-19T06:14:55.676Z,97203.22
2018-09-19T06:17:24.088Z,97198.83
2018-09-19T06:19:52.451Z,97198.02
2018-09-19T06:22:20.769Z,97190.03
2018-09-19T06:24:49.147Z,97199.11
2018-09-19T06:27:17.465Z,97195.67
2018-09-19T06:29:45.800Z,97197.92
2018-09-19T06:32:14.227Z,97205.79
2018-09-19T06:34:42.542Z,97212.54
2018-09-19T06:37:11.197Z,97206.61
2018-09-19T06:39:39.694Z,97207.17
2018-09-19T06:42:08.048Z,97210.40
2018-09-19T06:44:36.607Z,97208.09
2018-09-19T06:47:05.064Z,97208.95
2018-09-19T06:49:33.763Z,97208.61
2018-09-19T06:52:02.545Z,97215.34
2018-09-19T06:54:30.846Z,97200.58
2018-09-19T06:56:59.578Z,97212.75
2018-09-19T06:59:28.494Z,97205.95
2018-09-19T07:01:56.822Z,97208.56
2018-09-19T07:04:25.156Z,97210.45
2018-09-19T07:06:53.520Z,97206.98
2018-09-19T07:09:21.830Z,97208.27
2018-09-19T07:11:50.469Z,97205.50
2018-09-19T07:14:18.778Z,97207.45
2018-09-19T07:16:47.462Z,97208.59
2018-09-19T07:19:15.815Z,97208.38
2018-09-19T07:21:44.155Z,97209.45
2018-09-19T07:24:12.485Z,97209.67
2018-09-19T07:26:41.091Z,97213.09
2018-09-19T07:29:09.431Z,97200.08
2018-09-19T07:31:37.779Z,97212.72
2018-09-19T07:34:06.107Z,97201.23
2018-09-19T07:36:34.438Z,97216.00
2018-09-19T07:39:02.788Z,97206.89
2018-09-19T07:41:31.130Z,97200.86
2018-09-19T07:43:59.694Z,97212.14
2018-09-19T07:46:28.109Z,97207.73
2018-09-19T07:48:56.383Z,97201.45
2018-09-19T07:51:24.714Z,97214.38
2018-09-19T07:53:53.028Z,97211.76
2018-09-19T07:56:21.364Z,97216.05
2018-09-19T07:58:49.663Z,97218.13
2018-09-19T08:01:18.101Z,97228.10
2018-09-19T08:03:46.352Z,97227.49
2018-09-19T08:06:14.708Z,97229.44
2018-09-19T08:08:43.015Z,97224.45
2018-09-19T08:11:11.317Z,97235.45
2018-09-19T08:13:40.012Z,97227.94
2018-09-19T08:16:08.379Z,97241.09
2018-09-19T08:18:36.730Z,97231.66
2018-09-19T08:21:05.062Z,97232.55
2018-09-19T08:23:33.782Z,97229.41
2018-09-19T08:26:02.091Z,97231.96
2018-09-19T08:28:30.473Z,97248.77
2018-09-19T08:30:59.123Z,97250.86
2018-09-19T08:33:27.463Z,97250.86
2018-09-19T08:35:56.292Z,97251.00
2018-09-19T08:38:24.694Z,97254.04
2018-09-19T08:40:53.256Z,97249.49
2018-09-19T08:43:21.575Z,97250.37
2018-09-19T08:48:42.156Z,97244.67
2018-09-19T08:51:10.478Z,97236.96
2018-09-19T08:53:38.818Z,97242.98
2018-09-19T08:56:07.184Z,97238.98
2018-09-19T08:58:35.516Z,97242.30
2018-09-19T09:01:03.867Z,97253.19
2018-09-19T09:03:32.661Z,97241.08
2018-09-19T09:06:01.221Z,97249.95
2018-09-19T09:08:29.564Z,97253.80
2018-09-19T09:10:57.883Z,97264.34
2018-09-19T09:13:26.511Z,97256.65
2018-09-19T09:15:54.847Z,97253.53
2018-09-19T09:18:24.041Z,97261.39
2018-09-19T09:20:52.952Z,97268.95
2018-09-19T09:23:21.286Z,97259.48
2018-09-19T09:25:49.620Z,97261.89
2018-09-19T09:28:17.983Z,97253.59
2018-09-19T09:30:46.816Z,97259.32
2018-09-19T09:33:15.151Z,97248.38
2018-09-19T09:35:43.852Z,97253.84
2018-09-19T09:38:12.170Z,97250.98
2018-09-19T09:40:40.500Z,97256.98
2018-09-19T09:43:08.828Z,97250.22
2018-09-19T09:45:37.139Z,97248.09
2018-09-19T09:48:05.583Z,97253.48
2018-09-19T09:50:34.215Z,97245.08
2018-09-19T09:53:02.547Z,97255.19
2018-09-19T09:55:30.861Z,97241.14
2018-09-19T09:57:59.225Z,97240.13
2018-09-19T10:00:32.673Z,97233.84
2018-09-19T10:03:01.086Z,97241.83
2018-09-19T10:05:29.397Z,97237.75
2018-09-19T10:07:57.712Z,97237.48
2018-09-19T10:13:16.626Z,97236.44
2018-09-19T10:15:44.927Z,97240.67
2018-09-19T10:18:13.248Z,97235.09
2018-09-19T10:20:41.931Z,97235.81
2018-09-19T10:23:10.219Z,97228.31
2018-09-19T10:25:38.520Z,97221.25
2018-09-19T10:28:06.835Z,97234.59
2018-09-19T10:30:36.041Z,97229.94
2018-09-19T10:33:04.347Z,97218.22
2018-09-19T10:35:32.706Z,97215.62
2018-09-19T10:38:01.366Z,97214.42
2018-09-19T10:40:29.670Z,97224.92
2018-09-19T10:42:57.974Z,97222.78
2018-09-19T10:45:26.277Z,97226.45
2018-09-19T10:47:54.880Z,97226.45
2018-09-19T10:50:23.215Z,97217.63
2018-09-19T10:52:51.847Z,97224.05
2018-09-19T10:55:20.195Z,97217.88
2018-09-19T10:57:48.514Z,97207.17
2018-09-19T11:00:16.833Z,97208.70
2018-09-19T11:02:45.134Z,97208.48
2018-09-19T11:05:13.463Z,97207.54
2018-09-19T11:07:41.765Z,97205.28
2018-09-19T11:10:10.098Z,97212.60
2018-09-19T11:12:38.411Z,97208.70
2018-09-19T11:15:06.823Z,97195.27
2018-09-19T11:17:35.103Z,97188.94
2018-09-19T11:20:03.484Z,97199.45
2018-09-19T11:22:32.210Z,97185.90
2018-09-19T11:25:00.560Z,97186.98
2018-09-19T11:27:29.283Z,97185.41
2018-09-19T11:29:57.587Z,97179.22
2018-09-19T11:32:25.938Z,97180.63
2018-09-19T11:34:54.255Z,97188.68
2018-09-19T11:37:22.538Z,97185.86
2018-09-19T11:39:50.862Z,97182.56
2018-09-19T11:42:19.175Z,97177.06
2018-09-19T11:44:47.526Z,97179.74
2018-09-19T11:47:15.819Z,97176.04
2018-09-19T11:49:44.458Z,97177.20
2018-09-19T11:52:12.751Z,97165.50
2018-09-19T11:54:41.062Z,97170.23
2018-09-19T11:57:09.396Z,97155.75
2018-09-19T11:59:38.212Z,97165.81
2018-09-19T12:02:06.576Z,97156.28
2018-09-19T12:04:35.258Z,97152.54
2018-09-19T12:07:03.615Z,97154.61
2018-09-19T12:09:31.947Z,97158.23
2018-09-19T12:12:00.343Z,97160.14
2018-09-19T12:14:28.671Z,97153.89
2018-09-19T12:16:56.965Z,97150.84
2018-09-19T12:19:25.589Z,97138.48
2018-09-19T12:21:54.522Z,97144.63
2018-09-19T12:24:22.838Z,97138.25
2018-09-19T12:26:51.119Z,97141.34
2018-09-19T12:29:19.422Z,97148.55
2018-09-19T12:31:47.743Z,97143.30
2018-09-19T12:34:16.047Z,97143.41
2018-09-19T12:36:44.339Z,97146.84
2018-09-19T12:39:12.879Z,97143.64
2018-09-19T12:41:41.435Z,97142.89
2018-09-19T12:44:09.942Z,97145.49
2018-09-19T12:46:38.587Z,97136.89
2018-09-19T12:49:06.890Z,97130.78
2018-09-19T12:51:35.230Z,97136.55
2018-09-19T12:54:03.579Z,97140.48
2018-09-19T12:56:31.918Z,97141.39
2018-09-19T12:59:00.366Z,97139.25
2018-09-19T13:01:28.679Z,97142.37
2018-09-19T13:03:56.983Z,97134.29
2018-09-19T13:06:25.316Z,97135.87
2018-09-19T13:08:53.607Z,97128.13
2018-09-19T13:11:22.353Z,97137.68
2018-09-19T13:13:50.647Z,97133.91
2018-09-19T13:16:18.970Z,97134.90
2018-09-19T13:18:47.298Z,97139.03
2018-09-19T13:21:15.702Z,97139.66
2018-09-19T13:23:44.047Z,97122.98
2018-09-19T13:26:12.354Z,97129.52
2018-09-19T13:28:40.651Z,97119.27
2018-09-19T13:31:09.003Z,97124.25
2018-09-19T13:33:37.315Z,97129.25
2018-09-19T13:36:05.662Z,97132.34
2018-09-19T13:38:33.962Z,97129.64
2018-09-19T13:41:02.299Z,97123.62
2018-09-19T13:43:30.611Z,97116.14
2018-09-19T13:45:58.963Z,97121.77
2018-09-19T13:48:27.447Z,97114.03
2018-09-19T13:51:04.098Z,97113.98
2018-09-19T13:53:32.407Z,97124.19
2018-09-19T13:56:00.725Z,97114.38
2018-09-19T13:58:29.263Z,97117.21
2018-09-19T14:00:57.574Z,97119.42
2018-09-19T14:03:26.299Z,97123.38
2018-09-19T14:05:54.615Z,97125.16
2018-09-19T14:08:22.923Z,97112.15
2018-09-19T14:10:51.254Z,97108.13
2018-09-19T14:13:19.542Z,97110.23
2018-09-19T14:15:47.863Z,97111.44
2018-09-19T14:18:16.498Z,97111.34
2018-09-19T14:20:45.748Z,97117.14
2018-09-19T14:23:14.023Z,97114.06
2018-09-19T14:25:42.347Z,97116.84
2018-09-19T14:28:10.660Z,97112.70
2018-09-19T14:30:38.951Z,97117.20
2018-09-19T14:33:07.363Z,97111.42
2018-09-19T14:35:36.192Z,97110.44
2018-09-19T14:38:04.527Z,97103.30
2018-09-19T14:40:32.828Z,97106.09
2018-09-19T14:43:01.171Z,97117.98
2018-09-19T14:45:29.882Z,97106.38
2018-09-19T14:47:58.199Z,97105.88
2018-09-19T14:50:26.488Z,97104.99
2018-09-19T14:52:55.226Z,97101.16
2018-09-19T14:55:23.519Z,97106.53
2018-09-19T14:57:51.822Z,97097.76
2018-09-19T15:00:20.175Z,97092.61
2018-09-19T15:02:48.530Z,97100.09
2018-09-19T15:05:16.839Z,97087.55
2018-09-19T15:07:45.179Z,97094.59
2018-09-19T15:10:13.495Z,97094.77
2018-09-19T15:12:41.815Z,97086.96
2018-09-19T15:15:10.506Z,97083.73
2018-09-19T15:17:38.838Z,97089.30
2018-09-19T15:20:07.631Z,97091.22
2018-09-19T15:22:35.987Z,97096.55
2018-09-19T15:25:04.380Z,97091.08
2018-09-19T15:27:32.731Z,97080.84
2018-09-19T15:30:01.042Z,97090.26
2018-09-19T15:32:29.784Z,97075.25
2018-09-19T15:34:58.291Z,97081.50
2018-09-19T15:37:26.609Z,97082.78
2018-09-19T15:39:54.919Z,97078.51
2018-09-19T15:42:23.281Z,97080.70
2018-09-19T15:44:51.571Z,97074.91
2018-09-19T15:47:20.340Z,97078.09
2018-09-19T15:49:48.655Z,97087.06
2018-09-19T15:52:17.136Z,97083.80
2018-09-19T15:54:46.199Z,97095.09
2018-09-19T15:57:14.517Z,97087.25
2018-09-19T15:59:42.831Z,97086.05
2018-09-19T16:02:12.111Z,97085.16
2018-09-19T16:04:40.434Z,97089.94
2018-09-19T16:07:08.750Z,97094.52
2018-09-19T16:09:37.091Z,97094.90
2018-09-19T16:12:05.395Z,97092.53
2018-09-19T16:14:33.758Z,97099.84
2018-09-19T16:17:02.067Z,97097.56
2018-09-19T16:19:30.992Z,97106.39
2018-09-19T16:21:59.615Z,97102.48
2018-09-19T16:24:27.944Z,97094.09
2018-09-19T16:26:56.264Z,97090.45
2018-09-19T16:29:24.643Z,97098.94
2018-09-19T16:32:00.529Z,97104.73
2018-09-19T16:34:28.899Z,97101.46
2018-09-19T16:36:57.303Z,97107.72
2018-09-19T16:39:25.751Z,97103.55
2018-09-19T16:41:54.091Z,97111.33
2018-09-19T16:44:22.419Z,97102.96
2018-09-19T16:46:50.971Z,97119.48
2018-09-19T16:49:19.743Z,97110.40
2018-09-19T16:51:48.055Z,97114.42
2018-09-19T16:54:16.408Z,97112.20
2018-09-19T16:56:44.727Z,97106.59
2018-09-19T16:59:13.059Z,97101.91
2018-09-19T17:01:41.368Z,97114.56
2018-09-19T17:04:09.684Z,97122.59
2018-09-19T17:06:37.995Z,97115.02
2018-09-19T17:09:07.799Z,97112.42
2018-09-19T17:11:36.131Z,97111.27
2018-09-19T17:14:04.463Z,97117.14
2018-09-19T17:16:32.794Z,97115.33
2018-09-19T17:19:01.146Z,97119.05
2018-09-19T17:21:29.774Z,97122.70
2018-09-19T17:23:58.411Z,97129.26
2018-09-19T17:26:26.732Z,97132.84
2018-09-19T17:28:55.062Z,97137.55
2018-09-19T17:31:23.378Z,97138.16
2018-09-19T17:33:51.667Z,97138.64
2018-09-19T17:36:19.979Z,97141.46
2018-09-19T17:38:48.287Z,97147.09
2018-09-19T17:41:16.613Z,97142.16
2018-09-19T17:43:44.903Z,97142.63
2018-09-19T17:46:13.547Z,97149.95
2018-09-19T17:48:41.874Z,97146.84
2018-09-19T17:51:10.219Z,97138.03
2018-09-19T17:53:39.626Z,97146.72
2018-09-19T17:56:08.095Z,97146.48
2018-09-19T17:58:36.407Z,97148.09
2018-09-19T18:01:04.751Z,97146.95
2018-09-19T18:03:33.083Z,97146.02
2018-09-19T18:06:01.459Z,97154.48
2018-09-19T18:08:29.723Z,97151.72
2018-09-19T18:11:45.264Z,97153.55
2018-09-19T18:14:13.572Z,97155.29
2018-09-19T18:16:41.931Z,97157.59
2018-09-19T18:19:10.215Z,97155.27
2018-09-19T18:21:38.832Z,97157.19
2018-09-19T18:24:07.120Z,97165.94
2018-09-19T18:26:35.465Z,97168.98
2018-09-19T18:29:03.780Z,97161.98
2018-09-19T18:31:32.104Z,97168.14
2018-09-19T18:34:00.500Z,97166.22
2018-09-19T18:36:28.800Z,97165.13
2018-09-19T18:38:57.074Z,97173.42
2018-09-19T18:41:25.388Z,97178.42
2018-09-19T18:43:53.643Z,97182.68
2018-09-19T18:46:21.939Z,97178.91
2018-09-19T18:48:50.250Z,97175.93
2018-09-19T18:51:18.539Z,97175.48
2018-09-19T18:56:39.436Z,97185.42
2018-09-19T18:59:07.763Z,97186.15
2018-09-19T19:01:36.171Z,97186.57
2018-09-19T19:04:04.437Z,97191.88
2018-09-19T19:06:32.751Z,97192.22
2018-09-19T19:09:01.047Z,97201.41
2018-09-19T19:11:29.350Z,97199.57
2018-09-19T19:13:58.140Z,97202.13
2018-09-19T19:16:26.451Z,97197.09
2018-09-19T19:18:54.732Z,97205.95
2018-09-19T19:21:23.040Z,97206.80
2018-09-19T19:23:51.863Z,97212.27
2018-09-19T19:26:20.172Z,97212.48
2018-09-19T19:28:49.219Z,97208.33
2018-09-19T19:31:17.516Z,97214.44
2018-09-19T19:33:45.797Z,97213.33
2018-09-19T19:36:14.100Z,97213.98
2018-09-19T19:38:42.404Z,97221.58
2018-09-19T19:41:10.716Z,97216.61
2018-09-19T19:43:39.015Z,97222.78
2018-09-19T19:46:07.298Z,97222.32
2018-09-19T19:48:35.606Z,97220.30
2018-09-19T19:51:03.891Z,97218.94
2018-09-19T19:53:32.175Z,97224.89
2018-09-19T19:56:00.464Z,97222.57
2018-09-19T19:58:28.769Z,97226.98
2018-09-19T20:00:57.075Z,97231.84
2018-09-19T20:03:25.376Z,97237.16
2018-09-19T20:05:53.681Z,97240.91
2018-09-19T20:08:21.984Z,97237.92
2018-09-19T20:10:50.594Z,97247.26
2018-09-19T20:13:19.027Z,97247.93
2018-09-19T20:15:47.367Z,97248.34
2018-09-19T20:18:15.691Z,97251.59
2018-09-19T20:20:43.971Z,97251.08
2018-09-19T20:23:12.305Z,97252.82
2018-09-19T20:25:41.028Z,97249.13
2018-09-19T20:28:09.360Z,97248.61
2018-09-19T20:30:37.875Z,97249.12
2018-09-19T20:33:07.017Z,97246.14
2018-09-19T20:35:48.795Z,97249.72
2018-09-19T20:38:17.108Z,97252.67
2018-09-19T20:40:45.399Z,97248.72
2018-09-19T20:43:13.711Z,97252.42
2018-09-19T20:45:42.655Z,97248.79
2018-09-19T20:48:10.992Z,97252.91
2018-09-19T20:50:39.308Z,97253.72
2018-09-19T20:53:07.620Z,97254.83
2018-09-19T20:55:35.924Z,97260.61
2018-09-19T20:58:04.256Z,97260.53
2018-09-19T21:00:32.556Z,97263.24
2018-09-19T21:03:00.881Z,97264.12
2018-09-19T21:05:29.172Z,97260.52
2018-09-19T21:07:57.574Z,97266.95
2018-09-19T21:10:26.880Z,97270.51
2018-09-19T21:12:55.212Z,97271.35
2018-09-19T21:15:23.555Z,97272.81
2018-09-19T21:17:51.868Z,97271.81
2018-09-19T21:20:20.219Z,97272.91
2018-09-19T21:22:48.532Z,97274.47
2018-09-19T21:25:16.872Z,97281.81
2018-09-19T21:27:45.196Z,97284.18
2018-09-19T21:30:13.521Z,97282.98
2018-09-19T21:32:42.131Z,97278.35
2018-09-19T21:35:10.432Z,97278.80
2018-09-19T21:37:38.844Z,97280.94
2018-09-19T21:40:07.143Z,97288.67
2018-09-19T21:42:35.448Z,97281.83
2018-09-19T21:45:03.780Z,97285.45
2018-09-19T21:47:32.084Z,97280.66
2018-09-19T21:50:00.416Z,97280.16
2018-09-19T21:52:28.696Z,97286.31
2018-09-19T21:54:56.999Z,97281.45
2018-09-19T21:57:25.454Z,97281.78
2018-09-19T21:59:53.743Z,97282.01
2018-09-19T22:02:22.023Z,97279.93
2018-09-19T22:04:50.327Z,97287.62
2018-09-19T22:07:18.618Z,97281.72
2018-09-19T22:09:46.924Z,97281.60
2018-09-19T22:12:15.235Z,97284.81
2018-09-19T22:14:44.087Z,97273.52
2018-09-19T22:17:12.429Z,97281.92
2018-09-19T22:19:40.748Z,97284.45
2018-09-19T22:22:09.145Z,97278.63
2018-09-19T22:24:37.470Z,97280.67
2018-09-19T22:27:05.924Z,97277.56
2018-09-19T22:29:34.239Z,97283.12
2018-09-19T22:32:02.551Z,97276.42
2018-09-19T22:34:30.880Z,97282.87
2018-09-19T22:36:59.627Z,97279.99
2018-09-19T22:39:27.960Z,97279.73
2018-09-19T22:41:56.227Z,97284.23
2018-09-19T22:44:24.935Z,97282.13
2018-09-19T22:46:53.207Z,97282.19
2018-09-19T22:49:21.499Z,97278.68
2018-09-19T22:51:50.304Z,97272.16
2018-09-19T22:54:18.615Z,97278.52
2018-09-19T22:56:46.918Z,97273.52
2018-09-19T22:59:15.199Z,97273.78
2018-09-19T23:01:43.487Z,97274.66
2018-09-19T23:04:11.752Z,97279.20
2018-09-19T23:06:40.044Z,97277.02
2018-09-19T23:09:08.908Z,97270.64
2018-09-19T23:11:37.207Z,97275.79
2018-09-19T23:14:05.555Z,97277.69
2018-09-19T23:16:33.852Z,97277.43
2018-09-19T23:19:02.232Z,97273.44
2018-09-19T23:21:30.544Z,97280.87
2018-09-19T23:23:58.828Z,97276.80
2018-09-19T23:26:27.139Z,97279.11
2018-09-19T23:28:55.435Z,97277.83
2018-09-19T23:31:24.208Z,97275.20
2018-09-19T23:33:52.488Z,97273.53
2018-09-19T23:36:20.866Z,97276.86
2018-09-19T23:38:49.191Z,97269.58
2018-09-19T23:41:17.543Z,97268.10
2018-09-19T23:43:45.828Z,97268.10
2018-09-19T23:46:14.155Z,97272.23
2018-09-19T23:48:42.460Z,97264.81
2018-09-19T23:51:10.785Z,97268.06
2018-09-19T23:53:39.073Z,97265.70
2018-09-19T23:56:07.384Z,97262.83
2018-09-19T23:58:35.679Z,97263.45
